Time;durP1;ratioP1;P1;durP2;ratioP2;P2;SDS_P1;SDS_P2;PMS_P1;PMS_P2;Temp;Humidity;BMP_temperature;BMP_pressure;BME280_temperature;BME280_humidity;BME280_pressure;Samples;Min_cycle;Max_cycle;Signal;HPM_P1;HPM_P2
2021/01/07 00:01:07;;;;;;;7.55;5.15;;;2.30;95.00;;;;;;4988898;28;20100;-43
2021/01/07 00:03:38;;;;;;;11.10;6.07;;;2.30;95.00;;;;;;4988556;28;20049;-43
2021/01/07 00:06:09;;;;;;;8.57;5.25;;;2.30;95.20;;;;;;4989472;28;20069;-43
2021/01/07 00:08:35;;;;;;;8.63;5.65;;;2.20;95.10;;;;;;4987908;28;20030;-43
2021/01/07 00:11:02;;;;;;;7.45;5.40;;;2.20;95.10;;;;;;4989065;28;20065;-43
2021/01/07 00:13:28;;;;;;;10.85;5.75;;;2.20;95.30;;;;;;4988518;28;20462;-43
2021/01/07 00:15:54;;;;;;;7.80;5.03;;;2.20;95.20;;;;;;4988839;28;20513;-42
2021/01/07 00:18:19;;;;;;;8.50;5.20;;;2.10;95.20;;;;;;4988774;28;20019;-42
2021/01/07 00:20:45;;;;;;;7.55;5.40;;;2.10;95.20;;;;;;4988824;28;20061;-42
2021/01/07 00:23:10;;;;;;;8.27;5.20;;;2.10;95.20;;;;;;4988395;28;20069;-43
2021/01/07 00:25:39;;;;;;;7.22;5.05;;;2.10;95.20;;;;;;4988935;28;20050;-42
2021/01/07 00:28:05;;;;;;;6.65;4.90;;;2.10;95.20;;;;;;4985954;28;20030;-43
2021/01/07 00:30:30;;;;;;;6.53;4.65;;;2.10;95.20;;;;;;4987580;28;20045;-42
2021/01/07 00:32:56;;;;;;;6.70;4.82;;;2.00;95.20;;;;;;4988621;28;20258;-43
2021/01/07 00:35:21;;;;;;;7.03;4.85;;;2.00;95.20;;;;;;4988272;28;20042;-43
2021/01/07 00:37:47;;;;;;;10.80;6.45;;;2.00;95.20;;;;;;4988377;28;20053;-42
2021/01/07 00:40:13;;;;;;;6.82;4.97;;;2.00;95.30;;;;;;4988284;28;20746;-43
2021/01/07 00:42:38;;;;;;;7.65;5.10;;;2.00;95.30;;;;;;4988580;28;20054;-42
2021/01/07 00:45:04;;;;;;;7.53;5.00;;;1.90;95.30;;;;;;4988189;28;20113;-43
2021/01/07 00:47:30;;;;;;;7.15;5.00;;;1.90;95.30;;;;;;4987848;28;20466;-42
2021/01/07 00:49:55;;;;;;;7.20;5.50;;;2.00;95.40;;;;;;4987954;28;20045;-41
2021/01/07 00:52:21;;;;;;;9.35;5.68;;;2.00;95.50;;;;;;4987861;28;20149;-40
2021/01/07 00:54:46;;;;;;;8.23;5.35;;;2.00;95.40;;;;;;4988639;28;20038;-42
2021/01/07 00:57:12;;;;;;;5.75;4.95;;;2.00;95.40;;;;;;4987528;28;20418;-42
2021/01/07 00:59:37;;;;;;;6.15;4.60;;;2.00;95.40;;;;;;4987925;28;20044;-42
2021/01/07 01:02:04;;;;;;;6.60;4.90;;;2.10;95.40;;;;;;4988018;28;20050;-44
2021/01/07 01:04:30;;;;;;;11.88;7.00;;;2.10;95.40;;;;;;4987245;28;20114;-42
2021/01/07 01:06:55;;;;;;;10.48;6.90;;;2.10;95.80;;;;;;4988324;28;20116;-43
2021/01/07 01:09:21;;;;;;;9.43;6.40;;;2.10;96.00;;;;;;4987603;28;20055;-43
2021/01/07 01:11:47;;;;;;;10.20;6.97;;;2.10;95.90;;;;;;4987611;28;20042;-42
2021/01/07 01:14:18;;;;;;;11.60;6.55;;;2.10;96.00;;;;;;4987805;28;20026;-43
2021/01/07 01:16:48;;;;;;;10.02;6.00;;;2.20;95.90;;;;;;4988224;28;20041;-42
2021/01/07 01:19:15;;;;;;;10.52;6.70;;;2.20;95.80;;;;;;4986759;28;20027;-42
2021/01/07 01:21:40;;;;;;;13.35;7.40;;;2.20;96.10;;;;;;4988231;28;20463;-42
2021/01/07 01:24:06;;;;;;;13.70;6.82;;;2.20;96.00;;;;;;4987893;28;20038;-42
2021/01/07 01:26:32;;;;;;;8.20;5.82;;;2.30;95.90;;;;;;4986899;28;20550;-42
2021/01/07 01:28:57;;;;;;;11.98;6.38;;;2.30;95.80;;;;;;4987882;28;20037;-42
2021/01/07 01:31:23;;;;;;;7.63;5.65;;;2.30;95.70;;;;;;4987160;28;20068;-43
2021/01/07 01:33:48;;;;;;;9.07;6.32;;;2.30;95.70;;;;;;4987398;28;20058;-43
2021/01/07 01:36:14;;;;;;;7.10;5.35;;;2.30;95.70;;;;;;4987358;28;20467;-43
2021/01/07 01:38:39;;;;;;;7.22;5.70;;;2.30;95.70;;;;;;4987773;28;20129;-42
2021/01/07 01:41:06;;;;;;;9.93;6.68;;;2.40;95.70;;;;;;4987280;28;20843;-43
2021/01/07 01:43:35;;;;;;;12.02;6.13;;;2.40;95.70;;;;;;4986843;28;20101;-43
2021/01/07 01:46:01;;;;;;;10.15;6.40;;;2.40;95.70;;;;;;4987460;28;20023;-43
2021/01/07 01:48:27;;;;;;;8.43;5.68;;;2.40;95.70;;;;;;4986741;28;20027;-43
2021/01/07 01:50:53;;;;;;;10.98;6.53;;;2.40;95.60;;;;;;4987100;28;20038;-42
2021/01/07 01:53:21;;;;;;;7.32;5.35;;;2.40;95.60;;;;;;4986226;28;20022;-42
2021/01/07 01:55:48;;;;;;;10.77;5.90;;;2.50;95.60;;;;;;4987239;28;20026;-43
2021/01/07 01:58:14;;;;;;;8.18;6.50;;;2.50;95.60;;;;;;4986493;28;20033;-43
2021/01/07 02:00:40;;;;;;;8.75;6.38;;;2.50;95.60;;;;;;4986747;28;20521;-43
2021/01/07 02:03:11;;;;;;;9.45;6.05;;;2.50;95.60;;;;;;4987170;28;20042;-43
2021/01/07 02:05:38;;;;;;;7.35;5.43;;;2.60;95.60;;;;;;4987046;28;20049;-43
2021/01/07 02:08:04;;;;;;;8.63;5.70;;;2.60;95.60;;;;;;4986776;28;20026;-43
2021/01/07 02:10:32;;;;;;;9.68;5.72;;;2.60;95.50;;;;;;4986505;28;20483;-43
2021/01/07 02:12:58;;;;;;;7.50;5.80;;;2.70;95.50;;;;;;4987205;28;20108;-43
2021/01/07 02:15:24;;;;;;;9.68;6.03;;;2.60;95.50;;;;;;4985971;28;20474;-43
2021/01/07 02:17:50;;;;;;;7.97;6.38;;;2.60;95.50;;;;;;4987272;28;20022;-43
2021/01/07 02:20:25;;;;;;;8.10;5.95;;;2.70;95.50;;;;;;4986534;28;20541;-43
2021/01/07 02:22:55;;;;;;;9.10;5.70;;;2.70;95.50;;;;;;4986451;28;20026;-43
2021/01/07 02:25:21;;;;;;;7.82;6.10;;;2.70;95.50;;;;;;4986603;28;20044;-42
2021/01/07 02:27:47;;;;;;;10.85;7.70;;;2.70;95.50;;;;;;4987132;28;20035;-43
2021/01/07 02:30:13;;;;;;;11.32;6.72;;;2.70;95.50;;;;;;4986522;28;20737;-42
2021/01/07 02:32:39;;;;;;;10.88;7.28;;;2.70;95.50;;;;;;4989840;28;20474;-43
2021/01/07 02:35:06;;;;;;;10.38;6.63;;;2.70;95.50;;;;;;4991103;28;20041;-42
2021/01/07 02:37:31;;;;;;;8.65;5.72;;;2.70;95.40;;;;;;4989780;28;20046;-41
2021/01/07 02:39:57;;;;;;;9.48;6.90;;;2.70;95.50;;;;;;4990804;28;20030;-42
2021/01/07 02:42:25;;;;;;;7.53;6.15;;;2.80;95.50;;;;;;4990043;28;20065;-42
2021/01/07 02:44:51;;;;;;;8.23;6.35;;;2.80;95.50;;;;;;4990906;28;20037;-42
2021/01/07 02:47:16;;;;;;;7.65;5.80;;;2.80;95.40;;;;;;4990619;28;20031;-43
2021/01/07 02:49:42;;;;;;;9.00;7.00;;;2.80;95.40;;;;;;4990257;28;20617;-42
2021/01/07 02:52:07;;;;;;;9.88;6.90;;;2.80;95.40;;;;;;4990569;28;20038;-43
2021/01/07 02:54:33;;;;;;;8.05;6.72;;;2.80;95.40;;;;;;4990493;28;20133;-42
2021/01/07 02:56:58;;;;;;;8.88;7.20;;;2.80;95.40;;;;;;4990300;28;20121;-43
2021/01/07 02:59:24;;;;;;;9.95;6.80;;;2.80;95.40;;;;;;4989892;28;20022;-43
2021/01/07 03:01:49;;;;;;;9.38;6.57;;;2.80;95.70;;;;;;4990441;28;20161;-43
2021/01/07 03:04:15;;;;;;;10.88;7.78;;;2.80;95.40;;;;;;4989557;28;20045;-42
2021/01/07 03:06:40;;;;;;;8.18;6.60;;;2.80;95.40;;;;;;4990372;28;20026;-42
2021/01/07 03:09:06;;;;;;;12.18;6.93;;;2.80;95.40;;;;;;4990941;28;20413;-43
2021/01/07 03:11:34;;;;;;;9.77;6.63;;;2.80;95.40;;;;;;4989440;28;20046;-43
2021/01/07 03:13:59;;;;;;;9.27;7.38;;;2.90;95.40;;;;;;4990478;28;20029;-42
2021/01/07 03:16:25;;;;;;;13.48;7.78;;;2.80;95.40;;;;;;4989660;28;20038;-43
2021/01/07 03:18:50;;;;;;;10.75;7.72;;;2.80;95.40;;;;;;4989889;28;20033;-42
2021/01/07 03:21:16;;;;;;;10.07;8.07;;;2.80;95.40;;;;;;4989975;28;20034;-42
2021/01/07 03:23:41;;;;;;;12.45;8.50;;;2.80;95.40;;;;;;4990101;28;20031;-42
2021/01/07 03:26:07;;;;;;;10.48;7.43;;;2.80;95.40;;;;;;4989778;28;20042;-42
2021/01/07 03:28:32;;;;;;;14.68;9.70;;;2.90;95.40;;;;;;4989828;28;20445;-43
2021/01/07 03:30:58;;;;;;;10.95;8.05;;;2.90;95.40;;;;;;4989837;28;20065;-42
2021/01/07 03:33:23;;;;;;;11.55;8.80;;;2.80;95.30;;;;;;4988945;28;20061;-43
2021/01/07 03:35:49;;;;;;;11.25;8.75;;;2.80;95.40;;;;;;4990087;28;20041;-42
2021/01/07 03:38:14;;;;;;;10.27;8.20;;;2.80;95.40;;;;;;4989354;28;20022;-44
2021/01/07 03:40:40;;;;;;;11.10;7.97;;;2.80;95.40;;;;;;4989524;28;20052;-43
2021/01/07 03:43:05;;;;;;;10.77;7.80;;;2.80;95.40;;;;;;4989707;28;20109;-43
2021/01/07 03:45:31;;;;;;;9.75;7.30;;;2.80;95.40;;;;;;4989469;28;20113;-40
2021/01/07 03:47:57;;;;;;;11.57;8.25;;;2.80;95.50;;;;;;4989281;28;20053;-43
2021/01/07 03:50:22;;;;;;;10.25;8.18;;;2.80;95.50;;;;;;4988999;28;20469;-42
2021/01/07 03:52:48;;;;;;;11.57;8.13;;;2.80;95.40;;;;;;4989239;28;20601;-42
2021/01/07 03:55:13;;;;;;;9.70;7.25;;;2.80;95.50;;;;;;4989082;28;20036;-43
2021/01/07 03:57:39;;;;;;;9.57;7.53;;;2.80;95.50;;;;;;4989685;28;20073;-43
2021/01/07 04:00:05;;;;;;;9.80;7.32;;;2.80;95.50;;;;;;4989363;28;20022;-42
2021/01/07 04:02:31;;;;;;;9.40;7.45;;;2.80;95.40;;;;;;4988761;28;20046;-42
2021/01/07 04:04:56;;;;;;;9.95;7.38;;;2.80;95.50;;;;;;4989200;28;20056;-45
2021/01/07 04:07:22;;;;;;;11.45;7.70;;;2.80;95.50;;;;;;4988547;28;20034;-43
2021/01/07 04:09:47;;;;;;;9.00;7.50;;;2.80;95.50;;;;;;4989450;28;20084;-43
2021/01/07 04:12:13;;;;;;;9.02;6.63;;;2.80;95.50;;;;;;4988939;28;20065;-42
2021/01/07 04:14:39;;;;;;;8.90;6.72;;;2.80;95.50;;;;;;4988932;28;20025;-43
2021/01/07 04:17:04;;;;;;;9.40;7.65;;;2.80;95.50;;;;;;4989212;28;20133;-44
2021/01/07 04:19:30;;;;;;;9.90;7.97;;;2.80;95.50;;;;;;4988585;28;20026;-44
2021/01/07 04:21:55;;;;;;;12.02;8.32;;;2.80;95.50;;;;;;4988779;28;20062;-43
2021/01/07 04:24:21;;;;;;;10.40;8.40;;;2.80;95.60;;;;;;4989031;28;20031;-43
2021/01/07 04:26:46;;;;;;;12.82;9.43;;;2.80;95.60;;;;;;4989318;28;20977;-43
2021/01/07 04:29:12;;;;;;;15.05;10.82;;;2.80;95.70;;;;;;4988434;28;20061;-43
2021/01/07 04:31:39;;;;;;;13.27;9.77;;;2.70;95.60;;;;;;4988768;28;20554;-43
2021/01/07 04:34:05;;;;;;;11.95;9.15;;;2.70;95.70;;;;;;4988963;28;20189;-42
2021/01/07 04:36:30;;;;;;;11.68;8.23;;;2.70;95.70;;;;;;4987958;28;20026;-42
2021/01/07 04:38:56;;;;;;;13.00;9.18;;;2.70;95.80;;;;;;4988839;28;20030;-41
2021/01/07 04:41:22;;;;;;;13.75;8.70;;;2.70;95.70;;;;;;4988251;28;20023;-43
2021/01/07 04:43:54;;;;;;;11.73;8.63;;;2.70;95.70;;;;;;4988540;28;20049;-43
2021/01/07 04:46:19;;;;;;;11.98;8.70;;;2.70;95.70;;;;;;4988049;28;20726;-43
2021/01/07 04:48:45;;;;;;;13.70;9.20;;;2.70;95.70;;;;;;4988365;28;20061;-43
2021/01/07 04:51:11;;;;;;;14.95;9.68;;;2.70;95.70;;;;;;4988079;28;20061;-43
2021/01/07 04:53:37;;;;;;;13.27;9.93;;;2.70;95.70;;;;;;4988244;28;20486;-42
2021/01/07 04:56:02;;;;;;;15.32;11.23;;;2.70;95.70;;;;;;4987600;28;20038;-43
2021/01/07 04:58:28;;;;;;;15.98;11.15;;;2.70;95.80;;;;;;4988255;28;20035;-42
2021/01/07 05:00:53;;;;;;;15.93;11.30;;;2.70;95.90;;;;;;4988363;28;20281;-43
2021/01/07 05:03:22;;;;;;;16.27;10.85;;;2.70;95.90;;;;;;4987169;28;20038;-43
2021/01/07 05:05:50;;;;;;;15.15;11.73;;;2.70;95.90;;;;;;4988468;28;20034;-43
2021/01/07 05:08:19;;;;;;;14.23;10.88;;;2.70;95.90;;;;;;4987810;28;20042;-43
2021/01/07 05:10:50;;;;;;;15.32;11.02;;;2.70;95.90;;;;;;4988175;28;20363;-43
2021/01/07 05:13:17;;;;;;;13.43;9.70;;;2.70;95.80;;;;;;4987403;28;20370;-43
2021/01/07 05:15:43;;;;;;;11.98;8.95;;;2.70;95.80;;;;;;4988083;28;20045;-43
2021/01/07 05:18:10;;;;;;;15.50;10.23;;;2.70;95.80;;;;;;4987529;28;20493;-43
2021/01/07 05:20:36;;;;;;;13.70;10.05;;;2.70;95.80;;;;;;4988153;28;20054;-42
2021/01/07 05:23:02;;;;;;;15.40;10.82;;;2.80;95.90;;;;;;4988147;28;20116;-43
2021/01/07 05:25:31;;;;;;;12.38;9.40;;;2.80;95.90;;;;;;4986937;28;20026;-43
2021/01/07 05:28:04;;;;;;;11.07;8.88;;;2.80;95.90;;;;;;4988155;28;20065;-43
2021/01/07 05:30:32;;;;;;;10.38;8.35;;;2.80;95.90;;;;;;4986977;28;20057;-43
2021/01/07 05:33:06;;;;;;;9.75;8.18;;;2.80;95.90;;;;;;4987428;28;20105;-43
2021/01/07 05:35:32;;;;;;;9.88;8.27;;;2.80;95.80;;;;;;4987196;28;20053;-43
2021/01/07 05:37:59;;;;;;;10.02;7.78;;;2.80;95.90;;;;;;4987998;28;20437;-43
2021/01/07 05:40:25;;;;;;;9.45;7.80;;;2.80;95.90;;;;;;4986919;28;20378;-43
2021/01/07 05:42:55;;;;;;;11.05;8.13;;;2.80;95.90;;;;;;4987588;28;20034;-43
2021/01/07 05:45:21;;;;;;;8.50;7.25;;;2.80;95.90;;;;;;4986645;28;20061;-43
2021/01/07 05:47:49;;;;;;;8.20;6.32;;;2.80;95.90;;;;;;4987579;28;20057;-43
2021/01/07 05:50:17;;;;;;;9.75;7.10;;;2.90;95.90;;;;;;4986944;28;20368;-42
2021/01/07 05:52:47;;;;;;;9.70;7.35;;;2.90;95.90;;;;;;4987011;28;20467;-43
2021/01/07 05:55:17;;;;;;;8.85;7.00;;;2.90;95.90;;;;;;4987261;28;20018;-43
2021/01/07 05:57:43;;;;;;;8.23;6.50;;;2.90;95.90;;;;;;4987156;28;20505;-42
2021/01/07 06:00:15;;;;;;;8.13;7.05;;;2.90;95.90;;;;;;4986902;28;20022;-43
2021/01/07 06:02:41;;;;;;;8.90;7.35;;;2.90;95.90;;;;;;4987000;28;20054;-42
2021/01/07 06:05:09;;;;;;;8.50;6.78;;;3.00;95.90;;;;;;4987387;28;20072;-42
2021/01/07 06:07:36;;;;;;;9.48;7.53;;;3.00;95.90;;;;;;4986454;28;20030;-43
2021/01/07 06:10:03;;;;;;;9.45;7.70;;;3.00;95.90;;;;;;4987190;28;20073;-40
2021/01/07 06:12:29;;;;;;;9.18;7.05;;;2.90;95.90;;;;;;4986426;28;20371;-44
2021/01/07 06:14:58;;;;;;;9.18;7.50;;;2.90;95.90;;;;;;4987001;28;20053;-42
2021/01/07 06:17:24;;;;;;;10.02;7.65;;;2.90;95.90;;;;;;4986513;28;20038;-44
2021/01/07 06:19:53;;;;;;;9.85;7.38;;;2.90;95.90;;;;;;4987155;28;20027;-43
2021/01/07 06:22:20;;;;;;;9.57;7.40;;;3.00;95.90;;;;;;4986360;28;20030;-44
2021/01/07 06:24:51;;;;;;;8.23;6.88;;;3.00;95.90;;;;;;4987145;28;20022;-43
2021/01/07 06:27:27;;;;;;;11.38;7.93;;;3.00;95.90;;;;;;4986904;28;20029;-42
2021/01/07 06:29:56;;;;;;;10.15;7.43;;;3.00;96.00;;;;;;4986885;28;20486;-42
2021/01/07 06:32:22;;;;;;;10.55;7.18;;;3.00;95.90;;;;;;4986587;28;20038;-43
2021/01/07 06:34:49;;;;;;;10.45;7.35;;;3.00;96.00;;;;;;4986904;28;20596;-45
2021/01/07 06:37:36;;;;;;;11.05;7.97;;;3.00;95.90;;;;;;4986323;28;20022;-42
2021/01/07 06:40:06;;;;;;;10.88;7.95;;;3.00;95.90;;;;;;4986985;28;20034;-43
2021/01/07 06:42:36;;;;;;;9.50;7.15;;;3.00;95.90;;;;;;4986170;28;20084;-43
2021/01/07 06:45:04;;;;;;;10.40;7.65;;;3.00;95.90;;;;;;4987137;28;20029;-43
2021/01/07 06:47:31;;;;;;;13.48;9.15;;;3.00;95.90;;;;;;4986246;28;20532;-41
2021/01/07 06:49:58;;;;;;;12.20;7.75;;;3.00;95.90;;;;;;4986434;28;20023;-43
2021/01/07 06:52:24;;;;;;;11.73;7.88;;;3.10;96.00;;;;;;4984197;28;20034;-42
2021/01/07 06:54:54;;;;;;;11.35;8.30;;;3.00;96.00;;;;;;4989449;28;20037;-42
2021/01/07 06:57:19;;;;;;;10.65;8.00;;;3.00;96.10;;;;;;4987262;28;20030;-42
2021/01/07 06:59:58;;;;;;;11.65;8.55;;;3.00;96.10;;;;;;4983681;28;20022;-42
2021/01/07 07:02:24;;;;;;;10.60;8.30;;;3.00;96.20;;;;;;4984544;28;20412;-43
2021/01/07 07:05:09;;;;;;;11.27;7.93;;;3.00;96.20;;;;;;4985107;28;20104;-42
2021/01/07 07:07:37;;;;;;;10.48;8.40;;;3.00;96.20;;;;;;4984691;28;20078;-42
2021/01/07 07:10:18;;;;;;;11.43;8.07;;;3.00;96.30;;;;;;4985620;28;20505;-42
2021/01/07 07:12:49;;;;;;;11.20;7.95;;;3.00;96.30;;;;;;4984268;28;20600;-43
2021/01/07 07:15:16;;;;;;;10.55;7.63;;;3.00;96.30;;;;;;4984339;28;20113;-43
2021/01/07 07:17:47;;;;;;;10.75;7.90;;;3.00;96.30;;;;;;4985617;28;20030;-43
2021/01/07 07:20:20;;;;;;;9.30;7.32;;;3.00;96.30;;;;;;4989505;28;20030;-42
2021/01/07 07:22:46;;;;;;;8.65;7.22;;;3.00;96.30;;;;;;4989520;28;20030;-43
2021/01/07 07:25:15;;;;;;;10.10;6.82;;;3.00;96.50;;;;;;4989322;28;20110;-43
2021/01/07 07:28:04;;;;;;;10.18;7.35;;;3.00;96.30;;;;;;4990212;28;20058;-43
2021/01/07 07:30:33;;;;;;;8.60;7.30;;;3.00;96.30;;;;;;4987263;28;20256;-42
2021/01/07 07:32:59;;;;;;;8.35;6.78;;;3.00;96.30;;;;;;4989351;28;20026;-43
2021/01/07 07:35:34;;;;;;;10.02;7.03;;;3.00;96.30;;;;;;4986822;28;20062;-42
2021/01/07 07:38:00;;;;;;;9.02;6.97;;;3.00;96.30;;;;;;4987845;28;20496;-43
2021/01/07 07:40:40;;;;;;;8.15;6.68;;;3.00;96.30;;;;;;4987837;28;20499;-43
2021/01/07 07:43:08;;;;;;;7.70;6.65;;;3.00;96.40;;;;;;4988189;28;20117;-43
2021/01/07 07:45:35;;;;;;;8.65;6.60;;;3.00;96.30;;;;;;4987488;28;20130;-44
2021/01/07 07:48:01;;;;;;;8.38;6.85;;;3.00;96.30;;;;;;4987690;28;20030;-42
2021/01/07 07:50:29;;;;;;;9.20;6.75;;;3.00;96.40;;;;;;4988149;28;20037;-42
2021/01/07 07:53:09;;;;;;;9.00;6.68;;;3.00;96.40;;;;;;4988102;28;20506;-42
2021/01/07 07:55:38;;;;;;;8.68;6.63;;;3.00;96.40;;;;;;4987964;28;20045;-44
2021/01/07 07:58:11;;;;;;;8.82;7.05;;;3.00;96.40;;;;;;4988982;28;20049;-43
2021/01/07 08:00:37;;;;;;;;;;;3.00;96.40;;;;;;4988932;28;20061;-43
2021/01/07 08:03:03;;;;;;;8.95;6.38;;;3.10;96.40;;;;;;4989980;28;20321;-42
2021/01/07 08:05:31;;;;;;;7.55;6.45;;;3.10;96.40;;;;;;4989422;28;20122;-43
2021/01/07 08:07:57;;;;;;;8.95;6.68;;;3.00;96.30;;;;;;4989651;28;20113;-41
2021/01/07 08:10:24;;;;;;;9.45;6.63;;;3.10;96.40;;;;;;4989334;28;20120;-43
2021/01/07 08:12:51;;;;;;;8.50;6.38;;;3.10;96.40;;;;;;4993375;28;20026;-43
2021/01/07 08:15:26;;;;;;;10.55;7.22;;;3.10;96.30;;;;;;5008522;28;20037;-42
2021/01/07 08:17:52;;;;;;;9.75;7.75;;;3.10;96.30;;;;;;5009273;28;20033;-43
2021/01/07 08:20:26;;;;;;;12.93;8.43;;;3.10;96.40;;;;;;5008405;28;20274;-43
2021/01/07 08:22:55;;;;;;;9.52;7.65;;;3.10;96.50;;;;;;5009113;28;20031;-43
2021/01/07 08:25:25;;;;;;;9.35;7.43;;;3.10;96.50;;;;;;5008728;28;20037;-42
2021/01/07 08:28:07;;;;;;;10.57;7.22;;;3.10;96.50;;;;;;5009239;28;20037;-42
2021/01/07 08:30:35;;;;;;;9.65;7.88;;;3.10;96.50;;;;;;5007678;28;20080;-42
2021/01/07 08:33:04;;;;;;;11.38;8.52;;;3.20;96.50;;;;;;5009231;28;20026;-44
2021/01/07 08:35:30;;;;;;;12.23;8.77;;;3.20;96.40;;;;;;5007223;28;20088;-44
2021/01/07 08:37:56;;;;;;;11.73;9.23;;;3.20;96.40;;;;;;5008607;28;20492;-44
2021/01/07 08:40:21;;;;;;;13.05;9.80;;;3.30;96.40;;;;;;5008501;28;20116;-44
2021/01/07 08:42:47;;;;;;;11.95;9.00;;;3.20;96.40;;;;;;5008575;28;20176;-44
2021/01/07 08:45:12;;;;;;;12.13;8.80;;;3.30;96.40;;;;;;5008351;28;20026;-43
2021/01/07 08:47:38;;;;;;;9.60;8.07;;;3.30;96.40;;;;;;5008683;28;20092;-43
2021/01/07 08:50:08;;;;;;;9.48;7.60;;;3.30;96.40;;;;;;5008683;28;20026;-42
2021/01/07 08:52:53;;;;;;;10.65;7.80;;;3.30;96.40;;;;;;5008380;28;20026;-42
2021/01/07 08:55:20;;;;;;;12.90;8.27;;;3.30;96.40;;;;;;5007753;28;20050;-42
2021/01/07 08:57:46;;;;;;;11.23;8.55;;;3.40;96.40;;;;;;5008533;28;20080;-42
2021/01/07 09:00:17;;;;;;;11.25;8.82;;;3.40;96.30;;;;;;5008661;28;20030;-42
2021/01/07 09:02:43;;;;;;;10.15;8.23;;;3.40;96.30;;;;;;5008211;28;20560;-44
2021/01/07 09:05:09;;;;;;;10.00;8.05;;;3.40;96.30;;;;;;5008653;28;20029;-43
2021/01/07 09:07:35;;;;;;;9.90;7.57;;;3.40;96.30;;;;;;5008472;28;20038;-42
2021/01/07 09:10:01;;;;;;;8.63;7.53;;;3.50;96.30;;;;;;5008621;28;20029;-44
2021/01/07 09:12:33;;;;;;;9.82;7.68;;;3.50;96.30;;;;;;5008228;28;20040;-46
2021/01/07 09:15:05;;;;;;;11.00;7.83;;;3.50;96.20;;;;;;5008733;28;20033;-43
2021/01/07 09:17:55;;;;;;;8.55;7.10;;;3.60;96.20;;;;;;5007151;28;20032;-43
2021/01/07 09:20:28;;;;;;;11.63;8.82;;;3.60;96.10;;;;;;5007519;28;20033;-44
2021/01/07 09:23:00;;;;;;;;;;;3.60;96.10;;;;;;5007080;28;20033;-43
2021/01/07 09:25:26;;;;;;;12.10;8.63;;;3.60;96.10;;;;;;5007216;28;20281;-43
2021/01/07 09:27:51;;;;;;;7.65;6.47;;;3.60;96.10;;;;;;5008520;28;20481;-43
2021/01/07 09:30:17;;;;;;;10.40;7.20;;;3.60;96.10;;;;;;5007469;28;20184;-43
2021/01/07 09:32:44;;;;;;;9.38;7.22;;;3.60;96.10;;;;;;5008323;28;20026;-43
2021/01/07 09:35:11;;;;;;;8.20;6.95;;;3.60;96.10;;;;;;5008145;28;20136;-43
2021/01/07 09:37:36;;;;;;;8.35;6.55;;;3.60;96.20;;;;;;5007208;28;20029;-45
2021/01/07 09:40:04;;;;;;;7.22;5.63;;;3.60;96.20;;;;;;5007562;28;20366;-43
2021/01/07 09:42:31;;;;;;;7.65;5.90;;;3.70;96.20;;;;;;5006817;28;21075;-43
2021/01/07 09:44:56;;;;;;;6.95;5.45;;;3.70;96.20;;;;;;5007416;28;20040;-42
2021/01/07 09:47:25;;;;;;;7.82;5.55;;;3.80;96.20;;;;;;5006869;28;20030;-43
2021/01/07 09:49:51;;;;;;;6.95;5.95;;;3.80;96.10;;;;;;5007549;28;20030;-43
2021/01/07 09:52:17;;;;;;;7.43;5.47;;;3.80;96.00;;;;;;5006647;28;20040;-43
2021/01/07 09:54:43;;;;;;;7.13;5.43;;;3.80;96.00;;;;;;5007575;28;20022;-43
2021/01/07 09:57:08;;;;;;;6.43;5.00;;;3.80;96.00;;;;;;4991500;28;20482;-43
2021/01/07 09:59:34;;;;;;;6.70;5.53;;;3.80;96.00;;;;;;4986465;28;20081;-42
2021/01/07 10:02:18;;;;;;;6.97;4.90;;;3.80;96.00;;;;;;4987447;28;20045;-42
2021/01/07 10:04:44;;;;;;;6.03;5.28;;;3.80;96.10;;;;;;4988138;28;20136;-43
2021/01/07 10:07:11;;;;;;;7.60;5.53;;;3.80;96.10;;;;;;4987457;28;20033;-43
2021/01/07 10:09:37;;;;;;;5.30;4.70;;;3.80;96.10;;;;;;4987762;28;20033;-43
2021/01/07 10:12:03;;;;;;;6.68;5.57;;;3.90;96.10;;;;;;4987948;28;20042;-43
2021/01/07 10:14:32;;;;;;;6.38;5.20;;;3.90;96.10;;;;;;4987090;28;20041;-43
2021/01/07 10:17:05;;;;;;;5.55;4.95;;;3.90;96.10;;;;;;4987826;28;20030;-42
2021/01/07 10:19:33;;;;;;;5.53;4.93;;;4.00;96.10;;;;;;4987060;28;20625;-42
2021/01/07 10:22:12;;;;;;;6.10;4.95;;;4.00;96.10;;;;;;4987950;28;20126;-42
2021/01/07 10:24:46;;;;;;;5.97;4.72;;;4.10;96.10;;;;;;4987820;28;20026;-42
2021/01/07 10:27:14;;;;;;;6.32;5.32;;;4.20;96.10;;;;;;4986728;28;20026;-43
2021/01/07 10:29:41;;;;;;;6.55;5.47;;;4.20;96.00;;;;;;4988005;28;20029;-34
2021/01/07 10:32:12;;;;;;;6.65;5.72;;;4.20;95.90;;;;;;4987939;28;20180;-32
2021/01/07 10:34:39;;;;;;;6.75;5.28;;;4.20;95.90;;;;;;4986857;28;20027;-33
2021/01/07 10:37:06;;;;;;;5.85;5.25;;;4.30;95.90;;;;;;4988355;28;20028;-44
2021/01/07 10:39:36;;;;;;;5.65;4.85;;;4.30;95.90;;;;;;4987553;28;20027;-45
2021/01/07 10:42:04;;;;;;;6.80;5.78;;;4.30;95.90;;;;;;4987615;28;20038;-42
2021/01/07 10:44:33;;;;;;;6.40;5.80;;;4.40;95.90;;;;;;4987015;28;20537;-43
2021/01/07 10:47:00;;;;;;;6.03;4.50;;;4.40;95.90;;;;;;4987500;28;20112;-43
2021/01/07 10:49:31;;;;;;;5.78;4.85;;;4.40;95.80;;;;;;4986597;28;20026;-43
2021/01/07 10:52:02;;;;;;;6.50;4.38;;;4.40;95.80;;;;;;4987728;28;20678;-44
2021/01/07 10:55:05;;;;;;;4.40;4.00;;;4.40;95.90;;;;;;4990932;28;20027;-43
2021/01/07 10:58:05;;;;;;;4.93;4.43;;;4.40;95.90;;;;;;4892268;29;20501;-42
2021/01/07 11:01:01;;;;;;;5.60;4.40;;;4.40;95.90;;;;;;4990503;28;20493;-43
2021/01/07 11:04:02;;;;;;;4.72;4.20;;;4.40;95.90;;;;;;4989442;28;20064;-43
2021/01/07 11:06:32;;;;;;;5.07;3.80;;;4.40;95.90;;;;;;4907410;28;20093;-44
2021/01/07 11:09:13;;;;;;;4.70;4.18;;;4.50;95.90;;;;;;4990228;28;20034;-43
2021/01/07 11:11:49;;;;;;;4.25;3.47;;;4.50;95.90;;;;;;4991508;28;20454;-44
2021/01/07 11:14:24;;;;;;;3.97;3.63;;;4.50;95.90;;;;;;4990663;28;20037;-43
2021/01/07 11:16:53;;;;;;;3.70;3.40;;;4.60;95.90;;;;;;4990185;28;20030;-43
2021/01/07 11:19:23;;;;;;;4.65;4.20;;;4.60;95.90;;;;;;4989995;28;20557;-43
2021/01/07 11:21:55;;;;;;;4.18;3.70;;;4.60;95.90;;;;;;4990387;28;20042;-43
2021/01/07 11:24:22;;;;;;;3.88;3.47;;;4.60;95.90;;;;;;4989710;28;20105;-42
2021/01/07 11:26:49;;;;;;;3.67;3.38;;;4.60;95.80;;;;;;4990690;28;20057;-43
2021/01/07 11:29:17;;;;;;;4.65;4.05;;;4.60;95.90;;;;;;4990610;28;20032;-42
2021/01/07 11:31:43;;;;;;;5.03;4.53;;;4.60;95.80;;;;;;4990243;28;20026;-43
2021/01/07 11:34:11;;;;;;;4.35;3.63;;;4.60;95.90;;;;;;4990088;28;20034;-43
2021/01/07 11:36:51;;;;;;;4.38;3.40;;;4.60;95.90;;;;;;4990296;28;20057;-42
2021/01/07 11:39:22;;;;;;;4.63;3.60;;;4.60;95.90;;;;;;4989835;28;20589;-42
2021/01/07 11:42:06;;;;;;;4.05;3.53;;;4.60;96.20;;;;;;4990429;28;20109;-43
2021/01/07 11:44:48;;;;;;;3.72;3.20;;;4.60;95.90;;;;;;4989616;28;20034;-43
2021/01/07 11:47:16;;;;;;;4.18;3.35;;;4.60;95.90;;;;;;4990817;28;20585;-43
2021/01/07 11:49:45;;;;;;;3.80;3.17;;;4.70;95.90;;;;;;4996565;28;20391;-42
2021/01/07 11:52:11;;;;;;;3.58;3.20;;;4.70;95.90;;;;;;5009310;28;20052;-42
2021/01/07 11:54:39;;;;;;;3.72;3.25;;;4.70;95.80;;;;;;5001318;28;20026;-42
2021/01/07 11:57:08;;;;;;;4.43;2.92;;;4.70;95.80;;;;;;5006124;28;20129;-42
2021/01/07 11:59:38;;;;;;;3.17;2.90;;;4.70;95.90;;;;;;5002129;28;20033;-42
2021/01/07 12:02:10;;;;;;;3.17;2.85;;;4.70;95.90;;;;;;5004599;28;20032;-43
2021/01/07 12:04:37;;;;;;;2.55;2.35;;;4.80;95.70;;;;;;5003945;28;20124;-43
2021/01/07 12:07:21;;;;;;;2.75;2.47;;;4.70;95.70;;;;;;5002346;28;20026;-43
2021/01/07 12:09:47;;;;;;;3.22;2.58;;;4.80;95.70;;;;;;4986329;28;20224;-42
2021/01/07 12:12:15;;;;;;;2.50;2.30;;;4.80;95.70;;;;;;4973305;28;20134;-42
2021/01/07 12:14:51;;;;;;;2.50;2.30;;;4.80;95.70;;;;;;4985059;28;20023;-43
2021/01/07 12:17:17;;;;;;;1.88;1.77;;;4.70;95.60;;;;;;4972234;28;20047;-42
2021/01/07 12:19:43;;;;;;;1.90;1.80;;;4.70;95.70;;;;;;4969199;28;20050;-43
2021/01/07 12:22:14;;;;;;;2.00;1.70;;;4.70;95.70;;;;;;4968524;28;20046;-43
2021/01/07 12:24:41;;;;;;;3.53;2.00;;;4.70;95.80;;;;;;4981834;28;20023;-43
2021/01/07 12:27:07;;;;;;;1.60;1.50;;;4.70;95.80;;;;;;4980250;28;20466;-43
2021/01/07 12:29:37;;;;;;;2.40;1.65;;;4.70;95.80;;;;;;4970926;28;20481;-41
2021/01/07 12:32:13;;;;;;;1.65;1.40;;;4.70;95.90;;;;;;4981019;28;20035;-42
2021/01/07 12:34:54;;;;;;;1.70;1.60;;;4.80;95.90;;;;;;4969923;28;20034;-43
2021/01/07 12:37:21;;;;;;;1.70;1.50;;;4.80;95.80;;;;;;4969463;28;20041;-43
2021/01/07 12:39:53;;;;;;;2.42;1.80;;;4.80;95.70;;;;;;4966645;28;20046;-44
2021/01/07 12:42:27;;;;;;;1.63;1.48;;;4.80;95.80;;;;;;4963966;28;20109;-45
2021/01/07 12:44:56;;;;;;;1.70;1.60;;;4.80;95.80;;;;;;4970797;28;20519;-43
2021/01/07 12:47:21;;;;;;;2.10;1.58;;;4.90;95.80;;;;;;4982691;28;20031;-43
2021/01/07 12:49:48;;;;;;;2.33;1.40;;;4.90;95.80;;;;;;4969720;28;20094;-43
2021/01/07 12:52:15;;;;;;;4.00;1.85;;;4.90;95.80;;;;;;4980854;28;20877;-43
2021/01/07 12:54:42;;;;;;;3.78;1.85;;;4.90;95.70;;;;;;4969378;28;20378;-43
2021/01/07 12:57:24;;;;;;;3.72;1.77;;;4.90;95.80;;;;;;4981471;28;20031;-43
2021/01/07 13:00:07;;;;;;;3.17;1.77;;;4.90;95.80;;;;;;4971144;28;20466;-42